sensor_id;sensor_type;location;lat;lon;timestamp;pressure;altitude;pressure_sealevel;temperature;humidity
79678;BME280;69145;45.544;10.214;2023-05-19T00:02:26;100290.97;;;18.54;74.67
79678;BME280;69145;45.544;10.214;2023-05-19T00:04:59;100279.81;;;18.47;71.82
79678;BME280;69145;45.544;10.214;2023-05-19T00:07:56;100273.75;;;18.47;68.67
79678;BME280;69145;45.544;10.214;2023-05-19T00:17:34;100285.16;;;18.52;71.06
79678;BME280;69145;45.544;10.214;2023-05-19T00:20:41;100276.88;;;18.55;72.11
79678;BME280;69145;45.544;10.214;2023-05-19T00:27:32;100277.66;;;18.56;72.38
79678;BME280;69145;45.544;10.214;2023-05-19T00:37:12;100274.34;;;18.49;73.57
79678;BME280;69145;45.544;10.214;2023-05-19T00:39:42;100275.94;;;18.50;71.82
79678;BME280;69145;45.544;10.214;2023-05-19T00:42:08;100274.25;;;18.55;70.77
79678;BME280;69145;45.544;10.214;2023-05-19T00:44:36;100278.69;;;18.55;72.81
79678;BME280;69145;45.544;10.214;2023-05-19T00:47:04;100269.00;;;18.55;71.19
79678;BME280;69145;45.544;10.214;2023-05-19T00:49:29;100273.22;;;18.56;70.63
79678;BME280;69145;45.544;10.214;2023-05-19T00:51:55;100265.59;;;18.55;70.67
79678;BME280;69145;45.544;10.214;2023-05-19T00:54:23;100269.56;;;18.57;71.06
79678;BME280;69145;45.544;10.214;2023-05-19T00:56:48;100274.81;;;18.57;71.10
79678;BME280;69145;45.544;10.214;2023-05-19T00:59:14;100271.19;;;18.58;71.51
79678;BME280;69145;45.544;10.214;2023-05-19T01:01:40;100262.75;;;18.56;71.19
79678;BME280;69145;45.544;10.214;2023-05-19T01:04:05;100260.13;;;18.56;71.50
79678;BME280;69145;45.544;10.214;2023-05-19T01:06:34;100265.34;;;18.56;71.30
79678;BME280;69145;45.544;10.214;2023-05-19T01:09:01;100260.56;;;18.53;71.96
79678;BME280;69145;45.544;10.214;2023-05-19T01:11:27;100261.16;;;18.55;71.83
79678;BME280;69145;45.544;10.214;2023-05-19T01:13:53;100257.72;;;18.55;71.07
79678;BME280;69145;45.544;10.214;2023-05-19T01:16:31;100258.53;;;18.55;71.00
79678;BME280;69145;45.544;10.214;2023-05-19T01:19:29;100254.88;;;18.56;71.01
79678;BME280;69145;45.544;10.214;2023-05-19T01:22:18;100255.09;;;18.55;71.26
79678;BME280;69145;45.544;10.214;2023-05-19T01:28:19;100256.69;;;18.56;71.23
79678;BME280;69145;45.544;10.214;2023-05-19T01:30:54;100254.88;;;18.56;71.78
79678;BME280;69145;45.544;10.214;2023-05-19T01:33:21;100250.69;;;18.55;71.51
79678;BME280;69145;45.544;10.214;2023-05-19T01:35:48;100247.47;;;18.53;69.98
79678;BME280;69145;45.544;10.214;2023-05-19T01:38:16;100251.44;;;18.56;71.23
79678;BME280;69145;45.544;10.214;2023-05-19T01:40:44;100253.50;;;18.54;70.92
79678;BME280;69145;45.544;10.214;2023-05-19T01:43:17;100253.28;;;18.55;71.43
79678;BME280;69145;45.544;10.214;2023-05-19T01:45:43;100254.31;;;18.54;70.97
79678;BME280;69145;45.544;10.214;2023-05-19T01:48:09;100253.50;;;18.54;70.10
79678;BME280;69145;45.544;10.214;2023-05-19T01:50:36;100257.72;;;18.55;70.96
79678;BME280;69145;45.544;10.214;2023-05-19T01:53:01;100255.09;;;18.55;70.59
79678;BME280;69145;45.544;10.214;2023-05-19T01:55:27;100256.91;;;18.54;71.08
79678;BME280;69145;45.544;10.214;2023-05-19T02:06:01;100256.47;;;18.57;71.35
79678;BME280;69145;45.544;10.214;2023-05-19T02:08:40;100259.88;;;18.58;69.02
79678;BME280;69145;45.544;10.214;2023-05-19T02:11:14;100253.06;;;18.57;72.19
79678;BME280;69145;45.544;10.214;2023-05-19T02:13:43;100253.06;;;18.57;71.58
79678;BME280;69145;45.544;10.214;2023-05-19T02:16:13;100253.84;;;18.57;71.59
79678;BME280;69145;45.544;10.214;2023-05-19T02:18:40;100255.09;;;18.55;70.80
79678;BME280;69145;45.544;10.214;2023-05-19T02:21:09;100247.47;;;18.53;70.76
79678;BME280;69145;45.544;10.214;2023-05-19T02:23:38;100252.50;;;18.55;71.23
79678;BME280;69145;45.544;10.214;2023-05-19T02:26:04;100254.31;;;18.54;70.07
79678;BME280;69145;45.544;10.214;2023-05-19T02:28:29;100253.50;;;18.54;69.94
79678;BME280;69145;45.544;10.214;2023-05-19T02:30:54;100254.31;;;18.54;70.28
79678;BME280;69145;45.544;10.214;2023-05-19T02:33:20;100249.06;;;18.54;69.67
79678;BME280;69145;45.544;10.214;2023-05-19T02:35:48;100254.06;;;18.56;69.69
79678;BME280;69145;45.544;10.214;2023-05-19T02:38:14;100242.22;;;18.53;70.36
79678;BME280;69145;45.544;10.214;2023-05-19T02:40:39;100246.44;;;18.54;72.14
79678;BME280;69145;45.544;10.214;2023-05-19T02:43:05;100240.97;;;18.56;69.55
79678;BME280;69145;45.544;10.214;2023-05-19T02:45:30;100244.16;;;18.58;69.10
79678;BME280;69145;45.544;10.214;2023-05-19T02:47:55;100237.34;;;18.57;71.75
79678;BME280;69145;45.544;10.214;2023-05-19T02:50:21;100240.97;;;18.56;72.36
79678;BME280;69145;45.544;10.214;2023-05-19T02:52:46;100240.63;;;18.52;70.69
79678;BME280;69145;45.544;10.214;2023-05-19T02:55:12;100236.19;;;18.53;71.44
79678;BME280;69145;45.544;10.214;2023-05-19T02:57:41;100237.00;;;18.53;72.49
79678;BME280;69145;45.544;10.214;2023-05-19T03:00:07;100243.00;;;18.54;71.99
79678;BME280;69145;45.544;10.214;2023-05-19T03:02:44;100242.22;;;18.53;71.76
79678;BME280;69145;45.544;10.214;2023-05-19T03:05:10;100239.16;;;18.56;71.51
79678;BME280;69145;45.544;10.214;2023-05-19T03:07:35;100231.28;;;18.56;70.49
79678;BME280;69145;45.544;10.214;2023-05-19T03:10:01;100236.53;;;18.56;71.30
79678;BME280;69145;45.544;10.214;2023-05-19T03:12:31;100236.53;;;18.56;71.79
79678;BME280;69145;45.544;10.214;2023-05-19T03:14:56;100236.53;;;18.56;71.84
79678;BME280;69145;45.544;10.214;2023-05-19T03:17:21;100236.53;;;18.56;72.03
79678;BME280;69145;45.544;10.214;2023-05-19T03:19:47;100237.34;;;18.57;70.31
79678;BME280;69145;45.544;10.214;2023-05-19T03:22:12;100232.09;;;18.57;70.57
79678;BME280;69145;45.544;10.214;2023-05-19T03:24:37;100229.47;;;18.57;71.91
79678;BME280;69145;45.544;10.214;2023-05-19T03:27:03;100223.66;;;18.55;70.90
79678;BME280;69145;45.544;10.214;2023-05-19T03:29:30;100234.50;;;18.58;71.56
79678;BME280;69145;45.544;10.214;2023-05-19T03:31:55;100223.44;;;18.56;71.38
79678;BME280;69145;45.544;10.214;2023-05-19T03:34:20;100233.91;;;18.56;71.57
79678;BME280;69145;45.544;10.214;2023-05-19T03:36:46;100234.16;;;18.55;71.91
79678;BME280;69145;45.544;10.214;2023-05-19T03:39:14;100243.81;;;18.54;73.09
79678;BME280;69145;45.544;10.214;2023-05-19T03:41:40;100243.59;;;18.56;72.14
79678;BME280;69145;45.544;10.214;2023-05-19T03:44:06;100242.59;;;18.57;71.81
79678;BME280;69145;45.544;10.214;2023-05-19T03:46:31;100247.00;;;18.56;72.78
79678;BME280;69145;45.544;10.214;2023-05-19T03:48:56;100240.19;;;18.55;72.36
79678;BME280;69145;45.544;10.214;2023-05-19T03:51:22;100244.63;;;18.55;71.40
79678;BME280;69145;45.544;10.214;2023-05-19T03:53:47;100242.81;;;18.55;71.40
79678;BME280;69145;45.544;10.214;2023-05-19T03:56:13;100244.41;;;18.56;70.35
79678;BME280;69145;45.544;10.214;2023-05-19T03:58:39;100246.44;;;18.54;71.17
79678;BME280;69145;45.544;10.214;2023-05-19T04:01:08;100245.44;;;18.55;70.48
79678;BME280;69145;45.544;10.214;2023-05-19T04:03:33;100250.69;;;18.55;70.06
79678;BME280;69145;45.544;10.214;2023-05-19T04:08:55;100246.31;;;18.49;69.03
79678;BME280;69145;45.544;10.214;2023-05-19T04:17:48;100256.69;;;18.44;68.60
79678;BME280;69145;45.544;10.214;2023-05-19T04:23:18;100244.44;;;18.38;70.43
79678;BME280;69145;45.544;10.214;2023-05-19T04:25:48;100254.06;;;18.44;70.70
79678;BME280;69145;45.544;10.214;2023-05-19T04:28:18;100251.22;;;18.46;70.09
79678;BME280;69145;45.544;10.214;2023-05-19T04:30:43;100265.69;;;18.48;69.52
79678;BME280;69145;45.544;10.214;2023-05-19T04:33:10;100253.16;;;18.50;68.64
79678;BME280;69145;45.544;10.214;2023-05-19T04:35:37;100263.44;;;18.52;68.73
79678;BME280;69145;45.544;10.214;2023-05-19T04:38:04;100269.44;;;18.52;70.00
79678;BME280;69145;45.544;10.214;2023-05-19T04:47:59;100270.13;;;18.48;69.60
79678;BME280;69145;45.544;10.214;2023-05-19T05:03:54;100278.59;;;18.31;67.81
79678;BME280;69145;45.544;10.214;2023-05-19T05:06:23;100278.34;;;18.33;67.94
79678;BME280;69145;45.544;10.214;2023-05-19T05:08:55;100282.38;;;18.36;68.10
79678;BME280;69145;45.544;10.214;2023-05-19T05:11:21;100288.59;;;18.34;67.90
79678;BME280;69145;45.544;10.214;2023-05-19T05:13:47;100284.91;;;18.42;69.55
79678;BME280;69145;45.544;10.214;2023-05-19T05:16:18;100286.72;;;18.42;68.60
79678;BME280;69145;45.544;10.214;2023-05-19T05:19:00;100281.25;;;18.43;68.36
79678;BME280;69145;45.544;10.214;2023-05-19T05:21:27;100281.50;;;18.42;68.04
79678;BME280;69145;45.544;10.214;2023-05-19T05:24:09;100293.47;;;18.49;67.83
79678;BME280;69145;45.544;10.214;2023-05-19T05:26:58;100292.66;;;18.49;67.45
79678;BME280;69145;45.544;10.214;2023-05-19T05:35:04;100286.34;;;18.38;67.72
79678;BME280;69145;45.544;10.214;2023-05-19T05:37:59;100291.75;;;18.43;68.71
79678;BME280;69145;45.544;10.214;2023-05-19T05:40:54;100293.47;;;18.49;68.42
79678;BME280;69145;45.544;10.214;2023-05-19T05:44:26;100288.94;;;18.45;67.38
79678;BME280;69145;45.544;10.214;2023-05-19T05:53:29;100292.09;;;18.47;70.05
79678;BME280;69145;45.544;10.214;2023-05-19T05:56:02;100295.28;;;18.49;70.99
79678;BME280;69145;45.544;10.214;2023-05-19T05:58:33;100292.09;;;18.47;70.45
79678;BME280;69145;45.544;10.214;2023-05-19T06:01:06;100300.75;;;18.47;67.62
79678;BME280;69145;45.544;10.214;2023-05-19T06:03:48;100295.81;;;18.39;65.33
79678;BME280;69145;45.544;10.214;2023-05-19T06:06:13;100300.03;;;18.40;67.98
79678;BME280;69145;45.544;10.214;2023-05-19T06:08:41;100296.03;;;18.38;66.63
79678;BME280;69145;45.544;10.214;2023-05-19T06:11:11;100309.66;;;18.46;67.28
79678;BME280;69145;45.544;10.214;2023-05-19T06:13:39;100306.00;;;18.47;70.78
79678;BME280;69145;45.544;10.214;2023-05-19T06:16:09;100314.44;;;18.49;70.34
79678;BME280;69145;45.544;10.214;2023-05-19T06:18:34;100305.66;;;18.44;68.06
79678;BME280;69145;45.544;10.214;2023-05-19T06:21:00;100305.41;;;18.45;69.58
79678;BME280;69145;45.544;10.214;2023-05-19T06:23:26;100308.63;;;18.47;69.94
79678;BME280;69145;45.544;10.214;2023-05-19T06:25:53;100309.19;;;18.49;68.86
79678;BME280;69145;45.544;10.214;2023-05-19T06:28:18;100305.00;;;18.48;69.10
79678;BME280;69145;45.544;10.214;2023-05-19T06:30:44;100315.03;;;18.51;69.50
79678;BME280;69145;45.544;10.214;2023-05-19T06:33:11;100318.00;;;18.55;71.90
79678;BME280;69145;45.544;10.214;2023-05-19T06:35:37;100320.03;;;18.53;69.09
79678;BME280;69145;45.544;10.214;2023-05-19T06:38:02;100329.28;;;18.55;70.65
79678;BME280;69145;45.544;10.214;2023-05-19T06:40:27;100319.00;;;18.54;69.84
79678;BME280;69145;45.544;10.214;2023-05-19T06:42:53;100320.84;;;18.53;69.54
79678;BME280;69145;45.544;10.214;2023-05-19T06:45:18;100319.81;;;18.54;70.88
79678;BME280;69145;45.544;10.214;2023-05-19T06:47:52;100328.47;;;18.55;69.69
79678;BME280;69145;45.544;10.214;2023-05-19T06:50:18;100327.91;;;18.53;69.51
79678;BME280;69145;45.544;10.214;2023-05-19T06:52:43;100331.31;;;18.53;69.26
79678;BME280;69145;45.544;10.214;2023-05-19T06:55:11;100331.31;;;18.53;69.43
79678;BME280;69145;45.544;10.214;2023-05-19T06:57:36;100333.38;;;18.51;69.73
79678;BME280;69145;45.544;10.214;2023-05-19T07:00:02;100328.13;;;18.51;70.07
79678;BME280;69145;45.544;10.214;2023-05-19T07:02:48;100337.34;;;18.54;71.84
79678;BME280;69145;45.544;10.214;2023-05-19T07:05:18;100332.34;;;18.52;70.52
79678;BME280;69145;45.544;10.214;2023-05-19T07:07:50;100339.78;;;18.55;74.39
79678;BME280;69145;45.544;10.214;2023-05-19T07:10:15;100334.59;;;18.49;74.46
79678;BME280;69145;45.544;10.214;2023-05-19T07:12:43;100345.19;;;18.54;73.07
79678;BME280;69145;45.544;10.214;2023-05-19T07:15:09;100336.22;;;18.50;71.47
79678;BME280;69145;45.544;10.214;2023-05-19T07:17:41;100334.19;;;18.52;73.26
79678;BME280;69145;45.544;10.214;2023-05-19T07:20:35;100333.38;;;18.51;71.67
79678;BME280;69145;45.544;10.214;2023-05-19T07:26:44;100350.25;;;18.55;69.08
79678;BME280;69145;45.544;10.214;2023-05-19T07:29:10;100334.59;;;18.49;66.74
79678;BME280;69145;45.544;10.214;2023-05-19T07:31:35;100339.59;;;18.50;69.01
79678;BME280;69145;45.544;10.214;2023-05-19T07:34:04;100335.19;;;18.51;70.27
79678;BME280;69145;45.544;10.214;2023-05-19T07:36:29;100336.44;;;18.48;69.07
79678;BME280;69145;45.544;10.214;2023-05-19T07:38:55;100332.78;;;18.49;72.67
79678;BME280;69145;45.544;10.214;2023-05-19T07:41:21;100348.63;;;18.54;71.12
79678;BME280;69145;45.544;10.214;2023-05-19T07:43:47;100352.28;;;18.53;71.04
79678;BME280;69145;45.544;10.214;2023-05-19T07:46:12;100347.63;;;18.55;73.30
79678;BME280;69145;45.544;10.214;2023-05-19T07:48:38;100339.78;;;18.55;72.66
79678;BME280;69145;45.544;10.214;2023-05-19T07:51:03;100348.63;;;18.54;71.47
79678;BME280;69145;45.544;10.214;2023-05-19T07:53:29;100348.06;;;18.52;68.82
79678;BME280;69145;45.544;10.214;2023-05-19T07:55:54;100342.38;;;18.55;70.46
79678;BME280;69145;45.544;10.214;2023-05-19T07:58:20;100346.25;;;18.53;69.29
79678;BME280;69145;45.544;10.214;2023-05-19T08:00:46;100344.84;;;18.50;69.03
79678;BME280;69145;45.544;10.214;2023-05-19T08:03:11;100347.06;;;18.53;71.94
79678;BME280;69145;45.544;10.214;2023-05-19T08:05:37;100345.44;;;18.52;71.68
79678;BME280;69145;45.544;10.214;2023-05-19T08:08:02;100338.16;;;18.54;71.82
79678;BME280;69145;45.544;10.214;2023-05-19T08:10:28;100341.81;;;18.53;73.91
79678;BME280;69145;45.544;10.214;2023-05-19T08:12:53;100344.19;;;18.55;72.78
79678;BME280;69145;45.544;10.214;2023-05-19T08:15:19;100338.97;;;18.55;73.53
79678;BME280;69145;45.544;10.214;2023-05-19T08:17:45;100339.78;;;18.55;74.62
79678;BME280;69145;45.544;10.214;2023-05-19T08:20:10;100335.53;;;18.54;72.85
79678;BME280;69145;45.544;10.214;2023-05-19T08:22:36;100339.19;;;18.53;73.46
79678;BME280;69145;45.544;10.214;2023-05-19T08:25:02;100345.78;;;18.56;71.48
79678;BME280;69145;45.544;10.214;2023-05-19T08:27:30;100340.31;;;18.57;72.11
79678;BME280;69145;45.544;10.214;2023-05-19T08:29:56;100347.41;;;18.57;71.04
79678;BME280;69145;45.544;10.214;2023-05-19T08:32:22;100347.63;;;18.55;69.37
79678;BME280;69145;45.544;10.214;2023-05-19T08:34:47;100347.81;;;18.54;68.31
79678;BME280;69145;45.544;10.214;2023-05-19T08:37:13;100344.19;;;18.55;72.34
79678;BME280;69145;45.544;10.214;2023-05-19T08:39:38;100347.28;;;18.52;67.60
79678;BME280;69145;45.544;10.214;2023-05-19T08:42:04;100352.28;;;18.53;70.15
79678;BME280;69145;45.544;10.214;2023-05-19T08:44:31;100347.28;;;18.52;67.53
79678;BME280;69145;45.544;10.214;2023-05-19T08:46:59;100343.84;;;18.51;67.85
79678;BME280;69145;45.544;10.214;2023-05-19T08:49:31;100344.06;;;18.50;66.73
79678;BME280;69145;45.544;10.214;2023-05-19T08:55:08;100348.81;;;18.41;65.23
79678;BME280;69145;45.544;10.214;2023-05-19T08:57:38;100338.50;;;18.40;64.06
79678;BME280;69145;45.544;10.214;2023-05-19T09:00:04;100338.72;;;18.45;63.34
79678;BME280;69145;45.544;10.214;2023-05-19T09:02:37;100346.69;;;18.50;64.02
79678;BME280;69145;45.544;10.214;2023-05-19T09:05:04;100344.84;;;18.50;64.62
79678;BME280;69145;45.544;10.214;2023-05-19T09:07:30;100344.66;;;18.52;65.47
79678;BME280;69145;45.544;10.214;2023-05-19T09:09:59;100342.59;;;18.54;65.76
79678;BME280;69145;45.544;10.214;2023-05-19T09:12:25;100345.00;;;18.55;68.06
79678;BME280;69145;45.544;10.214;2023-05-19T09:14:51;100354.69;;;18.55;66.93
79678;BME280;69145;45.544;10.214;2023-05-19T09:17:16;100350.25;;;18.55;67.19
79678;BME280;69145;45.544;10.214;2023-05-19T09:19:46;100348.63;;;18.54;69.10
79678;BME280;69145;45.544;10.214;2023-05-19T09:22:15;100351.03;;;18.56;66.41
79678;BME280;69145;45.544;10.214;2023-05-19T09:24:43;100338.97;;;18.55;67.16
79678;BME280;69145;45.544;10.214;2023-05-19T09:27:08;100347.63;;;18.55;70.15
79678;BME280;69145;45.544;10.214;2023-05-19T09:29:34;100338.97;;;18.55;69.84
79678;BME280;69145;45.544;10.214;2023-05-19T09:31:59;100340.53;;;18.56;69.27
79678;BME280;69145;45.544;10.214;2023-05-19T09:34:28;100345.00;;;18.55;69.69
79678;BME280;69145;45.544;10.214;2023-05-19T09:36:53;100345.00;;;18.55;70.14
79678;BME280;69145;45.544;10.214;2023-05-19T09:39:20;100336.56;;;18.53;71.99
79678;BME280;69145;45.544;10.214;2023-05-19T09:41:46;100346.38;;;18.58;71.51
79678;BME280;69145;45.544;10.214;2023-05-19T09:44:25;100343.16;;;18.56;70.81
79678;BME280;69145;45.544;10.214;2023-05-19T09:46:54;100334.53;;;18.55;71.10
79678;BME280;69145;45.544;10.214;2023-05-19T09:49:20;100348.41;;;18.56;72.43
79678;BME280;69145;45.544;10.214;2023-05-19T09:52:01;100344.19;;;18.55;72.23
79678;BME280;69145;45.544;10.214;2023-05-19T09:54:27;100344.44;;;18.53;74.06
79678;BME280;69145;45.544;10.214;2023-05-19T09:57:00;100346.59;;;18.56;72.04
79678;BME280;69145;45.544;10.214;2023-05-19T09:59:27;100342.38;;;18.55;71.77
79678;BME280;69145;45.544;10.214;2023-05-19T10:01:57;100341.34;;;18.56;70.44
79678;BME280;69145;45.544;10.214;2023-05-19T10:04:23;100336.91;;;18.57;70.17
79678;BME280;69145;45.544;10.214;2023-05-19T10:06:49;100334.53;;;18.55;70.57
79678;BME280;69145;45.544;10.214;2023-05-19T10:09:24;100343.97;;;18.56;69.26
79678;BME280;69145;45.544;10.214;2023-05-19T10:11:57;100338.72;;;18.56;70.20
79678;BME280;69145;45.544;10.214;2023-05-19T10:14:24;100342.16;;;18.57;70.98
79678;BME280;69145;45.544;10.214;2023-05-19T10:16:50;100333.50;;;18.56;67.72
79678;BME280;69145;45.544;10.214;2023-05-19T10:19:24;100328.03;;;18.58;71.13
79678;BME280;69145;45.544;10.214;2023-05-19T10:21:50;100324.03;;;18.55;71.68
79678;BME280;69145;45.544;10.214;2023-05-19T10:24:16;100329.28;;;18.55;73.57
79678;BME280;69145;45.544;10.214;2023-05-19T10:26:58;100320.38;;;18.56;72.98
79678;BME280;69145;45.544;10.214;2023-05-19T10:29:27;100322.44;;;18.54;73.64
79678;BME280;69145;45.544;10.214;2023-05-19T10:31:57;100318.81;;;18.55;74.09
79678;BME280;69145;45.544;10.214;2023-05-19T10:39:47;100311.94;;;18.54;73.88
79678;BME280;69145;45.544;10.214;2023-05-19T10:42:19;100323.25;;;18.55;74.38
79678;BME280;69145;45.544;10.214;2023-05-19T10:45:21;100320.84;;;18.53;74.22
79678;BME280;69145;45.544;10.214;2023-05-19T10:47:49;100321.84;;;18.52;75.04
79678;BME280;69145;45.544;10.214;2023-05-19T10:50:15;100324.47;;;18.52;75.32
79678;BME280;69145;45.544;10.214;2023-05-19T10:52:41;100314.78;;;18.53;74.35
79678;BME280;69145;45.544;10.214;2023-05-19T10:55:11;100315.59;;;18.53;74.58
79678;BME280;69145;45.544;10.214;2023-05-19T10:57:52;100308.31;;;18.55;74.29
79678;BME280;69145;45.544;10.214;2023-05-19T11:00:29;100315.16;;;18.56;74.53
79678;BME280;69145;45.544;10.214;2023-05-19T11:03:15;100305.69;;;18.55;74.94
79678;BME280;69145;45.544;10.214;2023-05-19T11:05:41;100304.66;;;18.56;74.84
79678;BME280;69145;45.544;10.214;2023-05-19T11:08:10;100309.91;;;18.56;75.41
79678;BME280;69145;45.544;10.214;2023-05-19T11:10:36;100303.50;;;18.52;75.06
79678;BME280;69145;45.544;10.214;2023-05-19T11:13:03;100303.50;;;18.52;74.75
79678;BME280;69145;45.544;10.214;2023-05-19T11:15:34;100304.09;;;18.54;75.04
79678;BME280;69145;45.544;10.214;2023-05-19T11:18:01;100303.50;;;18.52;74.45
79678;BME280;69145;45.544;10.214;2023-05-19T11:20:28;100302.50;;;18.53;75.20
79678;BME280;69145;45.544;10.214;2023-05-19T11:23:07;100309.31;;;18.54;75.32
79678;BME280;69145;45.544;10.214;2023-05-19T11:25:40;100310.94;;;18.55;73.55
79678;BME280;69145;45.544;10.214;2023-05-19T11:28:07;100307.53;;;18.55;75.00
79678;BME280;69145;45.544;10.214;2023-05-19T11:30:34;100299.44;;;18.56;75.37
79678;BME280;69145;45.544;10.214;2023-05-19T11:33:00;100302.03;;;18.56;75.12
79678;BME280;69145;45.544;10.214;2023-05-19T11:35:26;100295.56;;;18.59;76.02
79678;BME280;69145;45.544;10.214;2023-05-19T11:37:55;100306.63;;;18.61;75.74
79678;BME280;69145;45.544;10.214;2023-05-19T11:40:22;100296.16;;;18.61;74.96
79678;BME280;69145;45.544;10.214;2023-05-19T11:42:47;100290.09;;;18.60;75.53
79678;BME280;69145;45.544;10.214;2023-05-19T11:45:12;100291.91;;;18.60;75.79
79678;BME280;69145;45.544;10.214;2023-05-19T11:47:38;100290.91;;;18.61;75.48
79678;BME280;69145;45.544;10.214;2023-05-19T11:50:03;100282.81;;;18.62;75.06
79678;BME280;69145;45.544;10.214;2023-05-19T11:52:29;100283.81;;;18.61;75.54
79678;BME280;69145;45.544;10.214;2023-05-19T11:54:59;100286.44;;;18.61;75.45
79678;BME280;69145;45.544;10.214;2023-05-19T11:57:38;100290.69;;;18.62;75.17
79678;BME280;69145;45.544;10.214;2023-05-19T12:00:03;100283.06;;;18.61;75.45
79678;BME280;69145;45.544;10.214;2023-05-19T12:02:34;100286.44;;;18.61;75.10
79678;BME280;69145;45.544;10.214;2023-05-19T12:05:00;100283.59;;;18.63;75.28
79678;BME280;69145;45.544;10.214;2023-05-19T12:07:26;100280.78;;;18.64;74.66
79678;BME280;69145;45.544;10.214;2023-05-19T12:09:51;100288.06;;;18.62;74.78
79678;BME280;69145;45.544;10.214;2023-05-19T12:12:18;100280.19;;;18.62;75.07
79678;BME280;69145;45.544;10.214;2023-05-19T12:14:50;100269.72;;;18.62;75.14
79678;BME280;69145;45.544;10.214;2023-05-19T12:17:18;100278.34;;;18.63;73.84
79678;BME280;69145;45.544;10.214;2023-05-19T12:19:48;100283.41;;;18.64;75.07
79678;BME280;69145;45.544;10.214;2023-05-19T12:22:15;100282.00;;;18.62;75.07
79678;BME280;69145;45.544;10.214;2023-05-19T12:24:42;100279.97;;;18.64;75.01
79678;BME280;69145;45.544;10.214;2023-05-19T12:27:18;100288.84;;;18.63;75.06
79678;BME280;69145;45.544;10.214;2023-05-19T12:29:48;100278.81;;;18.60;74.97
79678;BME280;69145;45.544;10.214;2023-05-19T12:32:15;100291.69;;;18.61;75.61
79678;BME280;69145;45.544;10.214;2023-05-19T12:34:42;100295.13;;;18.62;75.22
79678;BME280;69145;45.544;10.214;2023-05-19T12:37:09;100289.66;;;18.63;75.01
79678;BME280;69145;45.544;10.214;2023-05-19T12:39:41;100289.66;;;18.63;74.05
79678;BME280;69145;45.544;10.214;2023-05-19T12:42:07;100301.75;;;18.64;74.13
79678;BME280;69145;45.544;10.214;2023-05-19T12:44:53;100305.38;;;18.63;73.79
79678;BME280;69145;45.544;10.214;2023-05-19T12:47:21;100312.22;;;18.64;73.42
79678;BME280;69145;45.544;10.214;2023-05-19T12:50:07;100304.38;;;18.64;72.98
79678;BME280;69145;45.544;10.214;2023-05-19T13:45:53;100309.38;;;18.66;75.40
79678;BME280;69145;45.544;10.214;2023-05-19T13:56:11;100310.84;;;18.62;75.72
79678;BME280;69145;45.544;10.214;2023-05-19T13:58:37;100311.41;;;18.64;75.29
79678;BME280;69145;45.544;10.214;2023-05-19T14:01:02;100309.38;;;18.66;76.11
79678;BME280;69145;45.544;10.214;2023-05-19T14:03:27;100309.16;;;18.67;76.05
79678;BME280;69145;45.544;10.214;2023-05-19T14:05:53;100306.19;;;18.64;73.48
79678;BME280;69145;45.544;10.214;2023-05-19T14:08:19;100308.81;;;18.64;74.83
79678;BME280;69145;45.544;10.214;2023-05-19T14:10:45;100303.56;;;18.64;75.88
79678;BME280;69145;45.544;10.214;2023-05-19T14:13:11;100309.59;;;18.64;76.53
79678;BME280;69145;45.544;10.214;2023-05-19T14:15:37;100302.97;;;18.62;74.81
79678;BME280;69145;45.544;10.214;2023-05-19T14:18:02;100307.41;;;18.61;73.45
79678;BME280;69145;45.544;10.214;2023-05-19T14:20:28;100302.53;;;18.65;75.23
79678;BME280;69145;45.544;10.214;2023-05-19T14:22:56;100302.41;;;18.60;72.38
79678;BME280;69145;45.544;10.214;2023-05-19T14:25:22;100289.06;;;18.61;76.50
79678;BME280;69145;45.544;10.214;2023-05-19T14:27:47;100291.25;;;18.64;74.53
79678;BME280;69145;45.544;10.214;2023-05-19T14:30:12;100290.00;;;18.67;75.21
79678;BME280;69145;45.544;10.214;2023-05-19T14:32:38;100284.97;;;18.65;74.03
79678;BME280;69145;45.544;10.214;2023-05-19T14:35:04;100294.53;;;18.60;72.38
79678;BME280;69145;45.544;10.214;2023-05-19T14:37:29;100279.63;;;18.60;73.33
79678;BME280;69145;45.544;10.214;2023-05-19T14:39:56;100282.59;;;18.64;73.24
79678;BME280;69145;45.544;10.214;2023-05-19T14:42:21;100273.91;;;18.63;73.97
79678;BME280;69145;45.544;10.214;2023-05-19T14:44:47;100276.09;;;18.66;74.23
79678;BME280;69145;45.544;10.214;2023-05-19T14:47:12;100265.84;;;18.65;74.11
79678;BME280;69145;45.544;10.214;2023-05-19T14:49:37;100264.00;;;18.65;73.66
79678;BME280;69145;45.544;10.214;2023-05-19T14:52:03;100262.44;;;18.64;72.56
79678;BME280;69145;45.544;10.214;2023-05-19T14:54:28;100262.44;;;18.64;74.25
79678;BME280;69145;45.544;10.214;2023-05-19T14:56:54;100272.34;;;18.62;73.25
79678;BME280;69145;45.544;10.214;2023-05-19T14:59:19;100268.69;;;18.63;72.45
79678;BME280;69145;45.544;10.214;2023-05-19T15:23:22;100259.81;;;18.64;74.83
79678;BME280;69145;45.544;10.214;2023-05-19T15:25:47;100250.56;;;18.62;74.75
79678;BME280;69145;45.544;10.214;2023-05-19T15:30:56;100249.75;;;18.61;73.99
79678;BME280;69145;45.544;10.214;2023-05-19T15:33:26;100248.25;;;18.54;72.89
79678;BME280;69145;45.544;10.214;2023-05-19T15:35:52;100258.66;;;18.60;75.99
79678;BME280;69145;45.544;10.214;2023-05-19T15:38:18;100249.53;;;18.63;76.80
79678;BME280;69145;45.544;10.214;2023-05-19T15:40:52;100241.31;;;18.59;75.43
79678;BME280;69145;45.544;10.214;2023-05-19T15:43:36;100249.69;;;18.68;76.66